Terminal Aerodrome Forecast
Issued by NWS

Current Version | Previous Version | Text Only | Print | Product List | Glossary On
Versions: 1 2 3 4 5 6 7 8 9 10 11 12 13 14 15 16 17 18 19 20 21 22 23 24 25 26 27
000
FTUS45 KCYS 181100
TAFRWL
TAF
KRWL 181120Z 1812/1912 18006KT P6SM SKC
     FM181600 23016G27KT P6SM SCT120
     FM190100 23007KT P6SM SKC=

USA.gov is the U.S. government's official web portal to all federal, state and local government web resources and services.